ADDS METAR Data INFO
IDs: Format: Raw Decoded Include TAF

Data at: 0634 UTC 15 Dec 2017

KSAD 150551Z AUTO 13007KT 10SM CLR 07/M11 A3014 RMK AO2 SLP193 T00721106 10156 20061 53028
KSAD 150451Z AUTO 10007KT 10SM CLR 06/M10 A3012 RMK AO2 SLP189 T00611100
KSAD 150351Z AUTO 04005KT 10SM CLR 08/M10 A3008 RMK AO2 SLP174 T00781100
KSAD 150251Z AUTO 33007KT 10SM CLR 09/M11 A3005 RMK AO2 SLP168 T00941106 53028
KSAD 150151Z AUTO 35008KT 10SM CLR 11/M11 A3002 RMK AO2 SLP159 T01061106
KSAD 150051Z AUTO 34007KT 10SM CLR 11/M11 A2998 RMK AO2 SLP147 T01061106
KSAD 142351Z AUTO 28007KT 10SM CLR 16/M10 A2996 RMK AO2 SLP135 T01561100 10178 20111 53002
KSAD 142251Z AUTO 29007KT 10SM CLR 18/M09 A2996 RMK AO2 SLP130 T01781094
KSAD 142151Z AUTO 29007KT 10SM CLR 17/M09 A2995 RMK AO2 SLP125 T01721094
KSAD 142051Z AUTO 30007KT 10SM CLR 16/M09 A2995 RMK AO2 SLP129 T01561089 56021
KSAD 141951Z AUTO 29007KT 10SM CLR 15/M09 A2997 RMK AO2 SLP137 T01501089
KSAD 141851Z AUTO 30007KT 10SM CLR 14/M08 A3000 RMK AO2 SLP144 T01391083
KSAD 141751Z AUTO 29007KT 10SM CLR 11/M10 A3002 RMK AO2 SLP156 T01111100 10111 21006 51011
KSAD 141651Z AUTO 31007KT 10SM CLR 08/M10 A3002 RMK AO2 SLP156 T00831100
KSAD 141551Z AUTO 15004KT 10SM CLR 09/M10 A2999 RMK AO2 SLP144 T00891100
KSAD 141451Z AUTO 10SM CLR 04/M12 A2999 RMK AO2 SLP145 T00391117 53006
KSAD 141351Z AUTO 12005KT 10SM CLR 01/M12 A2998 RMK AO2 SLP147 T00061122
KSAD 141251Z AUTO 13005KT 10SM CLR 00/M12 A2997 RMK AO2 SLP139 T00001122
KSAD 141151Z AUTO 13004KT 10SM CLR 00/M12 A2997 RMK AO2 SLP135 T00001122 10050 21011 50000
KSAD 141051Z AUTO 00000KT 10SM CLR 00/M12 A2998 RMK AO2 SLP136 T00001122
KSAD 140951Z AUTO 00000KT 10SM CLR 01/M12 A2997 RMK AO2 SLP133 T00111117
KSAD 140851Z AUTO 15004KT 10SM CLR 02/M12 A2997 RMK AO2 SLP131 T00171117 58004
KSAD 140751Z AUTO 00000KT 10SM CLR 02/M13 A2997 RMK AO2 SLP135 T00171128
KSAD 140651Z AUTO 31005KT 10SM CLR 03/M11 A2998 RMK AO2 SLP136 T00331111 401940033
KSAD 140551Z AUTO 33004KT 10SM CLR 04/M11 A2998 RMK AO2 SLP138 T00391111 10178 20039 55000
KSAD 140451Z AUTO 00000KT 10SM CLR 06/M11 A2998 RMK AO2 SLP138 T00561106
KSAD 140351Z AUTO 09007KT 10SM CLR 07/M10 A2998 RMK AO2 SLP138 T00721100
KSAD 140251Z AUTO 13003KT 10SM CLR 09/M10 A2998 RMK AO2 SLP141 T00891100 55000
KSAD 140151Z AUTO 02003KT 10SM CLR 09/M11 A2998 RMK AO2 SLP139 T00941106
KSAD 140051Z AUTO 00000KT 10SM CLR 13/M09 A2998 RMK AO2 SLP135 T01331089
KSAD 132351Z AUTO 00000KT 10SM CLR 18/M09 A2998 RMK AO2 SLP133 T01781089 10194 20139 56016
KSAD 132251Z AUTO 00000KT 10SM CLR 18/M09 A3000 RMK AO2 SLP135 T01831089
KSAD 132151Z AUTO 00000KT 10SM CLR 18/M09 A3001 RMK AO2 SLP141 T01831094
KSAD 132051Z AUTO 00000KT 10SM CLR 18/M10 A3003 RMK AO2 SLP150 T01781100 56036
KSAD 131951Z AUTO 10SM CLR 16/M13 A3007 RMK AO2 SLP162 T01611128
KSAD 131851Z AUTO 15005KT 10SM CLR 15/M14 A3011 RMK AO2 SLP176 T01501144